Time;durP1;ratioP1;P1;durP2;ratioP2;P2;SDS_P1;SDS_P2;PMS_P1;PMS_P2;Temp;Humidity;BMP_temperature;BMP_pressure;BME280_temperature;BME280_humidity;BME280_pressure;Samples;Min_cycle;Max_cycle;Signal;HPM_P1;HPM_P2
2022/11/02 00:00:34;;;;;;;13.38;8.27;;;6.60;99.90;;;;;;4998032;28;20027;-49
2022/11/02 00:03:00;;;;;;;18.42;8.52;;;6.50;99.90;;;;;;5010574;28;20229;-54
2022/11/02 00:05:26;;;;;;;15.13;7.97;;;6.50;99.90;;;;;;4997256;28;20053;-53
2022/11/02 00:07:53;;;;;;;18.85;8.80;;;6.50;99.90;;;;;;4992254;28;20575;-51
2022/11/02 00:10:19;;;;;;;18.63;8.27;;;6.50;99.90;;;;;;5008721;28;20037;-54
2022/11/02 00:12:46;;;;;;;20.42;9.05;;;6.40;99.90;;;;;;4991929;28;20038;-50
2022/11/02 00:15:12;;;;;;;11.23;7.47;;;6.40;99.90;;;;;;5008520;28;20592;-55
2022/11/02 00:17:42;;;;;;;12.65;7.95;;;6.40;99.90;;;;;;4991893;28;20026;-55
2022/11/02 00:20:10;;;;;;;16.98;8.27;;;6.40;99.90;;;;;;4985294;28;20034;-49
2022/11/02 00:22:37;;;;;;;11.45;6.72;;;6.40;99.90;;;;;;4991753;28;20049;-55
2022/11/02 00:25:05;;;;;;;11.63;7.32;;;6.40;99.90;;;;;;5008529;28;20309;-49
2022/11/02 00:27:31;;;;;;;12.75;6.65;;;6.40;99.90;;;;;;5010917;28;20026;-53
2022/11/02 00:29:58;;;;;;;13.75;7.03;;;6.30;99.90;;;;;;4996579;28;20113;-52
2022/11/02 00:32:24;;;;;;;10.15;5.57;;;6.30;99.90;;;;;;5010775;28;20022;-54
2022/11/02 00:34:50;;;;;;;12.90;6.28;;;6.30;99.90;;;;;;4995096;28;20042;-51
2022/11/02 00:37:16;;;;;;;9.65;6.97;;;6.30;99.90;;;;;;5010648;28;20076;-51
2022/11/02 00:39:41;;;;;;;16.70;7.63;;;6.30;99.90;;;;;;4993840;28;20083;-53
2022/11/02 00:42:07;;;;;;;12.45;7.32;;;6.30;99.90;;;;;;5010621;28;20588;-51
2022/11/02 00:44:32;;;;;;;16.83;7.85;;;6.20;99.90;;;;;;4992547;28;20073;-55
2022/11/02 00:46:58;;;;;;;15.90;7.28;;;6.20;99.90;;;;;;5010690;28;20434;-52
2022/11/02 00:49:23;;;;;;;12.60;7.60;;;6.20;99.90;;;;;;4991653;28;20077;-52
2022/11/02 00:51:49;;;;;;;15.73;7.93;;;6.20;99.90;;;;;;5009394;28;20509;-52
2022/11/02 00:54:14;;;;;;;14.55;8.63;;;6.10;99.90;;;;;;4989810;28;20046;-55
2022/11/02 00:56:40;;;;;;;11.95;7.40;;;6.10;99.90;;;;;;5010681;28;20030;-54
2022/11/02 00:59:05;;;;;;;12.77;7.22;;;6.10;99.90;;;;;;4989701;28;20026;-52
2022/11/02 01:01:30;;;;;;;13.65;7.63;;;6.00;99.90;;;;;;5008067;28;20034;-52
2022/11/02 01:03:56;;;;;;;16.63;7.47;;;6.00;99.90;;;;;;4991244;28;20107;-52
2022/11/02 01:06:22;;;;;;;13.88;6.22;;;6.00;99.90;;;;;;4983540;28;20037;-51
2022/11/02 01:08:48;;;;;;;12.68;6.68;;;5.90;99.90;;;;;;5009662;28;20026;-53
2022/11/02 01:11:21;;;;;;;13.05;8.15;;;6.00;99.90;;;;;;4989206;28;20033;-53
2022/11/02 01:13:49;;;;;;;11.75;7.38;;;5.90;99.90;;;;;;4969541;28;20137;-53
2022/11/02 01:16:15;;;;;;;14.10;8.27;;;5.90;99.90;;;;;;4990768;28;20038;-51
2022/11/02 01:18:41;;;;;;;14.35;7.18;;;5.90;99.90;;;;;;5009461;28;20034;-51
2022/11/02 01:21:07;;;;;;;10.93;6.35;;;5.90;99.90;;;;;;4989157;28;20438;-51
2022/11/02 01:23:34;;;;;;;12.43;7.30;;;5.80;99.90;;;;;;5009546;28;20022;-51
2022/11/02 01:26:07;;;;;;;13.77;8.13;;;5.80;99.90;;;;;;4988764;28;20481;-49
2022/11/02 01:28:32;;;;;;;13.02;8.80;;;5.80;99.90;;;;;;5009499;28;20034;-53
2022/11/02 01:30:58;;;;;;;9.77;6.95;;;5.80;99.90;;;;;;4988961;28;20075;-51
2022/11/02 01:33:25;;;;;;;16.33;8.60;;;5.90;99.90;;;;;;5008092;28;20040;-52
2022/11/02 01:35:51;;;;;;;10.48;6.45;;;5.90;99.90;;;;;;4988387;28;20117;-49
2022/11/02 01:38:17;;;;;;;16.05;9.35;;;5.90;99.90;;;;;;5005696;28;20038;-51
2022/11/02 01:40:42;;;;;;;20.38;9.10;;;5.90;99.90;;;;;;5000592;28;20026;-49
2022/11/02 01:43:19;;;;;;;15.90;8.30;;;5.80;99.90;;;;;;4990674;28;20102;-51
2022/11/02 01:45:45;;;;;;;13.95;7.32;;;5.80;99.90;;;;;;4994460;28;20027;-53
2022/11/02 01:48:11;;;;;;;12.50;7.72;;;5.80;99.90;;;;;;5009083;28;20319;-50
2022/11/02 01:50:37;;;;;;;11.88;6.32;;;5.70;99.90;;;;;;4988577;28;20427;-52
2022/11/02 01:53:03;;;;;;;12.65;6.20;;;5.70;99.90;;;;;;5009018;28;20065;-51
2022/11/02 01:55:31;;;;;;;12.02;6.78;;;5.70;99.90;;;;;;4998734;28;20474;-52
2022/11/02 01:58:05;;;;;;;11.98;6.75;;;5.60;99.90;;;;;;4988417;28;20042;-49
2022/11/02 02:00:30;;;;;;;11.98;6.93;;;5.60;99.90;;;;;;4990029;28;20034;-51
2022/11/02 02:03:00;;;;;;;12.27;7.20;;;5.60;99.90;;;;;;4990209;28;20030;-52
2022/11/02 02:05:26;;;;;;;13.10;7.72;;;5.70;99.90;;;;;;5001097;28;20026;-48
2022/11/02 02:07:52;;;;;;;13.75;7.57;;;5.70;99.90;;;;;;4990020;28;20479;-48
2022/11/02 02:10:18;;;;;;;15.50;7.70;;;5.60;99.90;;;;;;5006660;28;20053;-49
2022/11/02 02:12:43;;;;;;;11.20;6.88;;;5.60;99.90;;;;;;4989773;28;20041;-47
2022/11/02 02:15:11;;;;;;;13.75;6.93;;;5.70;99.90;;;;;;5006768;28;20038;-47
2022/11/02 02:18:07;;;;;;;16.55;7.55;;;5.70;99.90;;;;;;4989875;28;20030;-49
2022/11/02 02:20:51;;;;;;;9.97;4.23;;;5.70;99.90;;;;;;4989274;28;20030;-49
2022/11/02 02:23:54;;;;;;;15.48;7.15;;;5.60;99.90;;;;;;4990026;28;20377;-50
2022/11/02 02:26:30;;;;;;;13.40;6.47;;;5.60;99.90;;;;;;4988578;28;20035;-45
2022/11/02 02:28:58;;;;;;;;;;;5.60;99.90;;;;;;4970282;28;20071;-45
2022/11/02 02:31:41;;;;;;;9.88;5.60;;;5.50;99.90;;;;;;4988120;28;19917;-46
2022/11/02 02:34:19;;;;;;;9.02;4.60;;;5.50;99.90;;;;;;4969886;28;20043;-47
2022/11/02 02:37:06;;;;;;;16.77;7.00;;;5.50;99.90;;;;;;4969642;28;20031;-47
2022/11/02 02:39:50;;;;;;;12.00;6.07;;;5.50;99.90;;;;;;4973725;28;20065;-47
2022/11/02 02:42:23;;;;;;;9.32;5.50;;;5.50;99.90;;;;;;5009119;28;20362;-47
2022/11/02 02:44:57;;;;;;;11.88;6.25;;;5.40;99.90;;;;;;4978141;28;20508;-48
2022/11/02 02:47:26;;;;;;;12.73;6.75;;;5.40;99.90;;;;;;5008854;28;20030;-45
2022/11/02 02:50:15;;;;;;;13.70;6.78;;;5.40;99.90;;;;;;4991436;28;20041;-46
2022/11/02 02:52:43;;;;;;;12.45;6.43;;;5.40;99.90;;;;;;4969328;28;20487;-46
2022/11/02 02:55:14;;;;;;;13.07;6.30;;;5.40;99.90;;;;;;5005768;28;20052;-46
2022/11/02 02:57:40;;;;;;;11.25;5.65;;;5.40;99.90;;;;;;4969599;28;20035;-49
2022/11/02 03:00:12;;;;;;;11.35;6.28;;;5.40;99.90;;;;;;5005651;28;20026;-46
2022/11/02 03:02:39;;;;;;;12.43;5.38;;;5.50;99.90;;;;;;4969512;28;20438;-47
2022/11/02 03:05:25;;;;;;;12.23;6.78;;;5.50;99.90;;;;;;5000702;28;20057;-46
2022/11/02 03:07:51;;;;;;;9.00;4.78;;;5.50;99.90;;;;;;4969691;28;20018;-46
2022/11/02 03:10:25;;;;;;;13.35;6.60;;;5.50;99.90;;;;;;5005477;28;20032;-47
2022/11/02 03:13:27;;;;;;;13.38;5.95;;;5.50;99.90;;;;;;4969414;28;20395;-48
2022/11/02 03:16:01;;;;;;;6.75;4.78;;;5.50;99.90;;;;;;4995103;28;20088;-48
2022/11/02 03:18:51;;;;;;;7.78;4.78;;;5.50;99.90;;;;;;4967918;28;20030;-46
2022/11/02 03:21:32;;;;;;;11.55;5.55;;;5.50;99.90;;;;;;4984533;28;20498;-47
2022/11/02 03:24:05;;;;;;;9.07;4.68;;;5.50;99.90;;;;;;4969662;28;20171;-47
2022/11/02 03:27:15;;;;;;;10.85;5.10;;;5.50;99.90;;;;;;4985208;28;20049;-50
2022/11/02 03:30:03;;;;;;;12.55;4.65;;;5.50;99.90;;;;;;4935328;28;20078;-48
2022/11/02 03:32:42;;;;;;;6.43;3.97;;;5.60;99.90;;;;;;4988755;28;20019;-46
2022/11/02 03:35:37;;;;;;;6.22;4.13;;;5.50;99.90;;;;;;4982669;28;20060;-47
2022/11/02 03:38:20;;;;;;;8.80;4.72;;;5.60;99.90;;;;;;4971510;28;20031;-46
2022/11/02 03:40:49;;;;;;;10.60;5.07;;;5.60;99.90;;;;;;5006176;28;20029;-48
2022/11/02 03:43:17;;;;;;;10.07;5.30;;;5.60;99.90;;;;;;4988536;28;20030;-46
2022/11/02 03:45:48;;;;;;;12.68;6.10;;;5.60;99.90;;;;;;4993501;28;20038;-47
2022/11/02 03:48:15;;;;;;;9.20;5.07;;;5.60;99.90;;;;;;4968999;28;20039;-46
2022/11/02 03:50:45;;;;;;;9.82;5.43;;;5.50;99.90;;;;;;4992933;28;20031;-47
2022/11/02 03:53:16;;;;;;;11.85;5.00;;;5.50;99.90;;;;;;5007899;28;20099;-46
2022/11/02 03:55:48;;;;;;;11.70;4.65;;;5.50;99.90;;;;;;4980414;28;20041;-49
2022/11/02 03:58:13;;;;;;;7.97;4.07;;;5.50;99.90;;;;;;4972679;28;20093;-46
2022/11/02 04:00:48;;;;;;;9.93;4.28;;;5.50;99.90;;;;;;4996271;28;20494;-47
2022/11/02 04:03:15;;;;;;;8.23;4.70;;;5.50;99.90;;;;;;4972375;28;20582;-46
2022/11/02 04:05:40;;;;;;;8.23;4.03;;;5.50;99.90;;;;;;5000914;28;20033;-46
2022/11/02 04:08:19;;;;;;;5.28;3.50;;;5.50;99.90;;;;;;4992422;28;20092;-47
2022/11/02 04:16:15;;;;;;;8.05;4.30;;;5.60;99.90;;;;;;4987062;28;20478;-47
2022/11/02 04:21:25;;;;;;;8.60;3.67;;;5.60;99.90;;;;;;4988765;28;20049;-49
2022/11/02 04:26:35;;;;;;;10.65;4.10;;;5.70;99.90;;;;;;4972315;28;20502;-46
2022/11/02 04:29:01;;;;;;;5.72;3.53;;;5.70;99.90;;;;;;5009466;28;20026;-47
2022/11/02 04:31:27;;;;;;;8.25;3.50;;;5.70;99.90;;;;;;4989992;28;20037;-47
2022/11/02 04:33:52;;;;;;;7.28;3.50;;;5.70;99.90;;;;;;5009998;28;20034;-47
2022/11/02 04:36:18;;;;;;;7.82;3.50;;;5.70;99.90;;;;;;4989802;28;20037;-47
2022/11/02 04:38:44;;;;;;;6.40;3.53;;;5.70;99.90;;;;;;5002986;28;20047;-46
2022/11/02 04:43:56;;;;;;;10.18;3.92;;;5.70;99.90;;;;;;4972089;28;20097;-46
2022/11/02 04:46:24;;;;;;;7.07;3.28;;;5.60;99.90;;;;;;4989995;28;20026;-46
2022/11/02 04:48:50;;;;;;;8.02;3.70;;;5.60;99.90;;;;;;5010013;28;20080;-47
2022/11/02 04:51:16;;;;;;;8.40;3.53;;;5.60;99.90;;;;;;4989794;28;20038;-46
2022/11/02 04:53:41;;;;;;;6.15;3.13;;;5.60;99.90;;;;;;5009632;28;20496;-46
2022/11/02 04:56:07;;;;;;;8.18;3.40;;;5.60;99.90;;;;;;4989580;28;20034;-47
2022/11/02 04:58:34;;;;;;;5.80;3.20;;;5.50;99.90;;;;;;5009780;28;20076;-48
2022/11/02 05:01:14;;;;;;;8.63;3.55;;;5.50;99.90;;;;;;4989158;28;20054;-46
2022/11/02 05:03:40;;;;;;;8.93;3.20;;;5.50;99.90;;;;;;5010174;28;20034;-45
2022/11/02 05:06:06;;;;;;;8.32;3.47;;;5.40;99.90;;;;;;4982795;28;20345;-47
2022/11/02 05:08:31;;;;;;;6.95;3.63;;;5.40;99.90;;;;;;5008293;28;20562;-49
2022/11/02 05:10:58;;;;;;;6.13;3.22;;;5.30;99.90;;;;;;4989094;28;20406;-47
2022/11/02 05:13:25;;;;;;;5.95;2.80;;;5.30;99.90;;;;;;5008138;28;20065;-46
2022/11/02 05:15:54;;;;;;;9.57;3.20;;;5.30;99.90;;;;;;4989091;28;20454;-48
2022/11/02 05:18:19;;;;;;;4.63;2.45;;;5.30;99.90;;;;;;5009610;28;20071;-46
2022/11/02 05:20:50;;;;;;;12.45;3.58;;;5.30;99.90;;;;;;4989247;28;20038;-47
2022/11/02 05:23:15;;;;;;;6.35;2.78;;;5.40;99.90;;;;;;5010240;28;20083;-46
2022/11/02 05:25:40;;;;;;;10.88;2.70;;;5.30;99.90;;;;;;4989040;28;20109;-46
2022/11/02 05:28:06;;;;;;;9.40;3.17;;;5.30;99.90;;;;;;5009101;28;20034;-47
2022/11/02 05:30:31;;;;;;;10.75;4.05;;;5.30;99.90;;;;;;4988928;28;20491;-46
2022/11/02 05:32:57;;;;;;;5.35;2.90;;;5.30;99.90;;;;;;5008912;28;20041;-48
2022/11/02 05:35:23;;;;;;;4.07;2.50;;;5.30;99.90;;;;;;4998553;28;20441;-46
2022/11/02 05:37:48;;;;;;;9.90;2.63;;;5.30;99.90;;;;;;4990240;28;20110;-47
2022/11/02 05:40:14;;;;;;;6.45;2.67;;;5.30;99.90;;;;;;5007144;28;20045;-49
2022/11/02 05:42:39;;;;;;;8.70;2.55;;;5.40;99.90;;;;;;4990267;28;20057;-48
2022/11/02 05:45:05;;;;;;;6.70;2.88;;;5.50;99.90;;;;;;5007025;28;20030;-49
2022/11/02 05:47:33;;;;;;;9.80;2.90;;;5.50;99.90;;;;;;4990183;28;20042;-49
2022/11/02 05:49:58;;;;;;;9.93;2.53;;;5.60;99.90;;;;;;5006938;28;20629;-51
2022/11/02 05:52:24;;;;;;;6.00;2.10;;;5.70;99.90;;;;;;5009587;28;20026;-47
2022/11/02 05:54:49;;;;;;;6.95;3.00;;;5.70;99.90;;;;;;4993757;28;20072;-52
2022/11/02 05:57:16;;;;;;;5.35;2.10;;;5.80;99.90;;;;;;5008240;28;20025;-47
2022/11/02 05:59:41;;;;;;;6.50;2.45;;;5.90;99.90;;;;;;4992363;28;20025;-49
2022/11/02 06:02:07;;;;;;;8.02;2.45;;;5.90;99.90;;;;;;5009329;28;20052;-49
2022/11/02 06:04:32;;;;;;;7.43;2.45;;;6.00;99.90;;;;;;4986072;28;20084;-52
2022/11/02 06:06:58;;;;;;;6.80;2.95;;;6.00;99.90;;;;;;5007731;28;20409;-47
2022/11/02 06:09:23;;;;;;;4.75;2.63;;;6.00;99.90;;;;;;4990231;28;20035;-48
2022/11/02 06:11:49;;;;;;;8.57;2.60;;;6.10;99.90;;;;;;5008931;28;20017;-48
2022/11/02 06:14:14;;;;;;;5.07;2.22;;;6.10;99.90;;;;;;4988785;28;20120;-52
2022/11/02 06:16:40;;;;;;;4.82;2.63;;;6.10;99.90;;;;;;5008970;28;20087;-51
2022/11/02 06:19:05;;;;;;;5.22;2.42;;;6.10;99.90;;;;;;4989592;28;20042;-51
2022/11/02 06:21:31;;;;;;;10.57;2.60;;;6.10;99.90;;;;;;5006527;28;20065;-51
2022/11/02 06:23:57;;;;;;;7.32;2.05;;;6.20;99.90;;;;;;4989842;28;20034;-49
2022/11/02 06:26:23;;;;;;;4.40;2.20;;;6.10;99.90;;;;;;4988619;28;20383;-53
2022/11/02 06:28:48;;;;;;;9.07;2.30;;;6.10;99.90;;;;;;5007984;28;20030;-54
2022/11/02 06:31:16;;;;;;;10.40;2.50;;;6.10;99.90;;;;;;4988306;28;20061;-51
2022/11/02 06:33:42;;;;;;;6.15;2.72;;;6.20;99.90;;;;;;5008082;28;20030;-50
2022/11/02 06:36:08;;;;;;;7.35;2.55;;;6.20;99.90;;;;;;4987611;28;20065;-54
2022/11/02 06:38:33;;;;;;;6.03;2.17;;;6.30;99.90;;;;;;5002523;28;20488;-52
2022/11/02 06:41:02;;;;;;;8.23;2.30;;;6.40;99.90;;;;;;5001929;28;20540;-54
2022/11/02 06:43:28;;;;;;;9.27;2.50;;;6.40;99.90;;;;;;4989186;28;20048;-52
2022/11/02 06:45:55;;;;;;;6.40;2.25;;;6.50;99.90;;;;;;4991975;28;20554;-52
2022/11/02 06:48:20;;;;;;;9.00;2.28;;;6.60;99.90;;;;;;5007930;28;20030;-52
2022/11/02 06:50:46;;;;;;;12.07;2.45;;;6.70;99.90;;;;;;4987903;28;20375;-55
2022/11/02 06:53:11;;;;;;;8.00;2.80;;;6.80;99.90;;;;;;5007787;28;20038;-51
2022/11/02 06:55:37;;;;;;;8.48;3.40;;;6.90;99.90;;;;;;4987981;28;20045;-53
2022/11/02 06:58:03;;;;;;;10.77;2.80;;;6.90;99.90;;;;;;5007908;28;20026;-50
2022/11/02 07:00:29;;;;;;;8.32;2.35;;;7.00;99.90;;;;;;4998347;28;20520;-51
2022/11/02 07:03:09;;;;;;;6.93;2.45;;;7.10;99.90;;;;;;4989287;28;20026;-56
2022/11/02 07:05:35;;;;;;;6.40;2.40;;;7.20;99.90;;;;;;4987377;28;20034;-52
2022/11/02 07:08:01;;;;;;;5.20;2.42;;;7.20;99.90;;;;;;4989136;28;20097;-50
2022/11/02 07:10:27;;;;;;;7.25;2.33;;;7.30;99.90;;;;;;5005812;28;20029;-53
2022/11/02 07:12:54;;;;;;;9.98;2.08;;;7.40;99.90;;;;;;4989544;28;20029;-51
2022/11/02 07:15:21;;;;;;;11.55;2.70;;;7.40;99.90;;;;;;5005801;28;20038;-50
2022/11/02 07:17:46;;;;;;;8.70;2.35;;;7.40;99.90;;;;;;4989096;28;20556;-50
2022/11/02 07:20:12;;;;;;;7.35;2.72;;;7.50;99.90;;;;;;5005726;28;20037;-51
2022/11/02 07:22:37;;;;;;;13.95;2.70;;;7.60;99.90;;;;;;4989083;28;20038;-53
2022/11/02 07:25:03;;;;;;;6.30;2.38;;;7.70;99.90;;;;;;5005758;28;20089;-55
2022/11/02 07:27:29;;;;;;;7.47;2.42;;;7.80;99.90;;;;;;5008296;28;20421;-53
2022/11/02 07:29:54;;;;;;;8.05;2.08;;;7.80;99.90;;;;;;4994695;28;20041;-52
2022/11/02 07:32:19;;;;;;;6.22;2.47;;;7.90;99.90;;;;;;5012029;28;20037;-55
2022/11/02 07:34:45;;;;;;;6.25;2.22;;;8.00;99.90;;;;;;4995782;28;20034;-53
2022/11/02 07:37:10;;;;;;;5.55;2.00;;;8.00;99.90;;;;;;5011763;28;20102;-53
2022/11/02 07:39:36;;;;;;;6.57;2.60;;;8.10;99.90;;;;;;4994327;28;20465;-53
2022/11/02 07:42:01;;;;;;;9.73;3.10;;;8.10;99.90;;;;;;5011846;28;20034;-52
2022/11/02 07:44:28;;;;;;;10.13;2.88;;;8.20;99.90;;;;;;4993252;28;20084;-53
2022/11/02 07:46:53;;;;;;;4.75;2.10;;;8.30;99.90;;;;;;5011848;28;20022;-54
2022/11/02 07:49:19;;;;;;;6.40;2.65;;;8.50;99.90;;;;;;4991880;28;20088;-53
2022/11/02 07:51:44;;;;;;;8.60;2.38;;;8.60;99.90;;;;;;5011914;28;20026;-50
2022/11/02 07:54:10;;;;;;;4.50;2.20;;;8.80;99.90;;;;;;4989141;28;20057;-53
2022/11/02 07:56:35;;;;;;;5.85;1.98;;;9.10;99.90;;;;;;5011535;28;20490;-52
2022/11/02 07:59:01;;;;;;;5.95;2.00;;;9.30;99.90;;;;;;4992358;28;20045;-53
2022/11/02 08:01:26;;;;;;;5.55;2.35;;;9.60;99.90;;;;;;4990429;28;20043;-53
2022/11/02 08:03:53;;;;;;;6.47;2.50;;;9.80;99.90;;;;;;5010776;28;20538;-56
2022/11/02 08:06:19;;;;;;;7.35;2.38;;;10.00;99.90;;;;;;4984330;28;20026;-51
2022/11/02 08:08:44;;;;;;;5.68;1.95;;;10.30;99.90;;;;;;5010916;28;20032;-51
2022/11/02 08:11:10;;;;;;;3.70;1.80;;;10.50;99.90;;;;;;4990141;28;20446;-52
2022/11/02 08:13:36;;;;;;;5.43;1.92;;;10.70;99.90;;;;;;5010486;28;20029;-53
2022/11/02 08:16:02;;;;;;;5.43;1.60;;;10.80;99.90;;;;;;4990289;28;20030;-51
2022/11/02 08:18:28;;;;;;;5.95;1.95;;;11.00;99.90;;;;;;5010338;28;20171;-54
2022/11/02 08:20:55;;;;;;;4.93;1.50;;;11.20;99.90;;;;;;4990403;28;20084;-55
2022/11/02 08:23:21;;;;;;;4.78;1.40;;;11.40;99.90;;;;;;5010345;28;20030;-52
2022/11/02 08:25:48;;;;;;;5.57;2.10;;;11.60;99.90;;;;;;4989989;28;20034;-53
2022/11/02 08:28:17;;;;;;;4.82;1.75;;;11.70;99.90;;;;;;5010758;28;20037;-52
2022/11/02 08:30:43;;;;;;;3.10;1.50;;;11.80;99.90;;;;;;4989398;28;20112;-53
2022/11/02 08:33:14;;;;;;;7.88;1.52;;;12.00;99.90;;;;;;5008755;28;20482;-51
2022/11/02 08:35:40;;;;;;;3.85;1.70;;;12.10;99.90;;;;;;4989811;28;20113;-56
2022/11/02 08:38:07;;;;;;;3.22;1.40;;;12.30;99.90;;;;;;5006548;28;20038;-54
2022/11/02 08:40:33;;;;;;;6.30;1.67;;;12.50;99.90;;;;;;5000588;28;20451;-56
2022/11/02 08:43:01;;;;;;;5.03;1.63;;;12.60;99.90;;;;;;4990958;28;20033;-53
2022/11/02 08:45:27;;;;;;;6.22;1.48;;;12.60;99.90;;;;;;5008127;28;20061;-54
2022/11/02 08:47:53;;;;;;;2.40;1.20;;;12.80;99.90;;;;;;4991210;28;20041;-56
2022/11/02 08:50:18;;;;;;;6.20;1.60;;;12.90;99.90;;;;;;5008232;28;20030;-55
2022/11/02 08:52:44;;;;;;;5.35;1.83;;;13.10;99.90;;;;;;4991252;28;20022;-54
2022/11/02 08:55:10;;;;;;;5.05;1.60;;;13.20;99.90;;;;;;5008250;28;20100;-52
2022/11/02 08:57:56;;;;;;;4.85;1.85;;;13.30;99.90;;;;;;4991056;28;20041;-54
2022/11/02 09:00:24;;;;;;;2.67;1.35;;;13.40;99.90;;;;;;4988819;28;20093;-53
2022/11/02 09:02:59;;;;;;;4.90;1.70;;;13.50;99.90;;;;;;4990884;28;20494;-55
2022/11/02 09:05:25;;;;;;;3.00;1.80;;;13.70;99.90;;;;;;5001733;28;20022;-52
2022/11/02 09:07:58;;;;;;;5.07;1.42;;;13.80;99.90;;;;;;4991113;28;20422;-50
2022/11/02 09:10:25;;;;;;;3.83;1.33;;;13.80;99.90;;;;;;4989317;28;20030;-51
2022/11/02 09:12:51;;;;;;;2.78;1.20;;;13.80;99.90;;;;;;4990575;28;20034;-54
2022/11/02 09:15:17;;;;;;;4.53;1.50;;;13.90;99.90;;;;;;5007499;28;20512;-52
2022/11/02 09:17:45;;;;;;;6.30;1.50;;;13.90;99.90;;;;;;4990743;28;20545;-54
2022/11/02 09:20:11;;;;;;;7.40;2.13;;;13.90;99.90;;;;;;5007779;28;20091;-51
2022/11/02 09:22:36;;;;;;;8.23;1.50;;;13.90;99.90;;;;;;4990966;28;20042;-52
2022/11/02 09:25:02;;;;;;;4.78;1.38;;;13.90;99.90;;;;;;5007356;28;20239;-52
2022/11/02 09:27:27;;;;;;;9.43;1.77;;;13.90;99.90;;;;;;5010172;28;20378;-52
2022/11/02 09:29:53;;;;;;;5.50;1.65;;;13.80;99.90;;;;;;4994587;28;20038;-52
2022/11/02 09:32:18;;;;;;;6.43;1.70;;;13.70;99.90;;;;;;5009953;28;20037;-53
2022/11/02 09:34:46;;;;;;;4.40;1.40;;;13.70;99.90;;;;;;4993139;28;20375;-50
2022/11/02 09:37:11;;;;;;;4.63;1.70;;;13.60;99.90;;;;;;5009625;28;20100;-55
2022/11/02 09:39:37;;;;;;;7.75;1.77;;;13.60;99.90;;;;;;4992266;28;20133;-54
2022/11/02 09:42:38;;;;;;;7.28;2.10;;;13.60;99.90;;;;;;5009330;28;20037;-52
2022/11/02 09:45:10;;;;;;;5.05;1.88;;;13.60;99.90;;;;;;4982005;28;20030;-50
2022/11/02 09:47:52;;;;;;;5.10;1.42;;;13.60;99.90;;;;;;5009660;28;20034;-52
2022/11/02 09:50:22;;;;;;;5.95;1.40;;;13.70;99.90;;;;;;4986863;28;20026;-54
2022/11/02 09:52:59;;;;;;;5.53;2.15;;;13.60;99.90;;;;;;4989024;28;20028;-54
2022/11/02 09:55:32;;;;;;;5.57;1.52;;;13.50;99.90;;;;;;4988182;28;20465;-55
2022/11/02 09:58:06;;;;;;;7.97;1.98;;;13.40;99.90;;;;;;4970099;28;20039;-53
2022/11/02 10:00:37;;;;;;;9.27;2.08;;;13.40;99.90;;;;;;4990353;28;20534;-51
2022/11/02 10:03:37;;;;;;;3.67;1.38;;;13.40;99.90;;;;;;4970071;28;20031;-50
2022/11/02 10:06:12;;;;;;;7.43;1.95;;;13.40;99.90;;;;;;4994366;28;20117;-52
2022/11/02 10:08:50;;;;;;;8.82;2.08;;;13.40;99.90;;;;;;4970231;28;20074;-53
2022/11/02 10:11:23;;;;;;;5.57;1.45;;;13.40;99.90;;;;;;4985105;28;20033;-50
2022/11/02 10:13:59;;;;;;;4.40;1.60;;;13.40;99.90;;;;;;4969788;28;20391;-50
2022/11/02 10:16:33;;;;;;;3.92;1.38;;;13.40;99.90;;;;;;4986571;28;20046;-50
2022/11/02 10:18:59;;;;;;;7.40;1.90;;;13.40;99.90;;;;;;4969954;28;20045;-53
2022/11/02 10:21:32;;;;;;;8.65;1.75;;;13.40;99.90;;;;;;4987492;28;20112;-49
2022/11/02 10:24:06;;;;;;;6.40;1.73;;;13.40;99.90;;;;;;5008427;28;20030;-51
2022/11/02 10:26:34;;;;;;;4.75;1.50;;;13.40;99.90;;;;;;4985643;28;20521;-52
2022/11/02 10:29:37;;;;;;;5.20;1.33;;;13.40;99.90;;;;;;5008790;28;20038;-53
2022/11/02 10:32:03;;;;;;;5.82;1.98;;;13.40;99.90;;;;;;5008805;28;20038;-50
2022/11/02 10:34:29;;;;;;;6.63;1.80;;;13.40;99.90;;;;;;4989983;28;20037;-50
2022/11/02 10:37:05;;;;;;;5.18;1.35;;;13.40;99.90;;;;;;5008852;28;20061;-49
2022/11/02 10:39:34;;;;;;;4.50;1.73;;;13.40;99.90;;;;;;4973432;28;20052;-50
2022/11/02 10:42:35;;;;;;;5.78;1.80;;;13.50;99.90;;;;;;5008718;28;20390;-48
2022/11/02 10:45:31;;;;;;;9.45;1.50;;;13.50;99.90;;;;;;4980662;28;20046;-54
2022/11/02 10:48:02;;;;;;;5.25;1.83;;;13.50;99.90;;;;;;4970051;28;20062;-50
2022/11/02 10:50:41;;;;;;;5.90;1.63;;;13.60;99.90;;;;;;4989037;28;20034;-52
2022/11/02 10:53:12;;;;;;;6.63;2.03;;;13.60;99.90;;;;;;4969576;28;20035;-47
2022/11/02 10:56:02;;;;;;;8.75;1.48;;;13.70;99.90;;;;;;4979615;28;20042;-51
2022/11/02 10:58:31;;;;;;;4.78;1.50;;;13.70;99.90;;;;;;5008136;28;20129;-49
2022/11/02 11:01:11;;;;;;;9.10;1.40;;;13.80;99.90;;;;;;4987160;28;20081;-49
2022/11/02 11:03:55;;;;;;;7.00;1.70;;;13.80;99.90;;;;;;4969452;28;20496;-51
2022/11/02 11:06:22;;;;;;;4.57;1.30;;;13.90;99.90;;;;;;4986287;28;20101;-53
2022/11/02 11:08:50;;;;;;;3.38;1.10;;;14.00;99.90;;;;;;5011677;28;20030;-50
2022/11/02 11:11:25;;;;;;;7.82;1.80;;;14.00;99.90;;;;;;4991033;28;20118;-50
2022/11/02 11:14:16;;;;;;;6.30;1.52;;;14.00;99.90;;;;;;5011765;28;20398;-51
2022/11/02 11:16:45;;;;;;;7.47;1.60;;;14.10;99.90;;;;;;5012188;28;20030;-50
2022/11/02 11:19:23;;;;;;;8.27;1.83;;;14.10;99.90;;;;;;4970282;28;20125;-50
2022/11/02 11:21:49;;;;;;;5.78;1.40;;;14.20;99.90;;;;;;5012115;28;20053;-50
2022/11/02 11:24:30;;;;;;;5.07;1.50;;;14.20;99.90;;;;;;4991819;28;20027;-52
2022/11/02 11:27:14;;;;;;;6.13;2.25;;;14.20;99.90;;;;;;5011988;28;20160;-54
2022/11/02 11:29:45;;;;;;;6.90;1.55;;;14.30;99.90;;;;;;4979120;28;20493;-49
2022/11/02 11:32:37;;;;;;;8.90;2.03;;;14.30;99.90;;;;;;5012192;28;20099;-53
2022/11/02 11:35:05;;;;;;;6.22;1.77;;;14.30;95.70;;;;;;4983978;28;20058;-49
2022/11/02 11:37:32;;;;;;;4.00;1.30;;;14.40;99.90;;;;;;5012096;28;20033;-50
2022/11/02 11:40:05;;;;;;;6.00;2.17;;;14.40;98.90;;;;;;4996980;28;20046;-47
2022/11/02 11:42:35;;;;;;;8.85;1.40;;;14.40;98.60;;;;;;5011701;28;20038;-50
2022/11/02 11:45:05;;;;;;;8.10;1.98;;;14.60;96.80;;;;;;4984522;28;20034;-49
2022/11/02 11:47:35;;;;;;;8.13;2.08;;;14.60;95.90;;;;;;5011544;28;20036;-48
2022/11/02 11:50:21;;;;;;;5.78;1.58;;;14.70;94.40;;;;;;4997185;28;20564;-52
2022/11/02 11:52:46;;;;;;;6.00;1.73;;;14.80;92.50;;;;;;5011401;28;20038;-53
2022/11/02 11:55:30;;;;;;;6.25;1.35;;;14.90;94.50;;;;;;4998691;28;20042;-52
2022/11/02 11:58:21;;;;;;;4.18;1.48;;;14.90;90.30;;;;;;4972687;28;20101;-50
2022/11/02 12:01:06;;;;;;;6.43;1.58;;;14.90;87.60;;;;;;4995338;28;20509;-53
2022/11/02 12:03:48;;;;;;;6.30;1.60;;;14.90;85.10;;;;;;4972528;28;20034;-51
2022/11/02 12:06:50;;;;;;;4.25;1.60;;;14.90;93.60;;;;;;4981141;28;20519;-49
2022/11/02 12:09:33;;;;;;;6.20;1.27;;;14.80;86.00;;;;;;4972091;28;20038;-53
2022/11/02 12:12:30;;;;;;;7.57;1.60;;;14.80;92.30;;;;;;5011052;28;20057;-54
2022/11/02 12:15:13;;;;;;;5.90;1.30;;;14.80;90.80;;;;;;4996811;28;20121;-53
2022/11/02 12:18:02;;;;;;;2.90;1.02;;;14.90;90.70;;;;;;5010196;28;20034;-47
2022/11/02 12:21:06;;;;;;;4.80;1.38;;;14.90;90.30;;;;;;4991191;28;20653;-53
2022/11/02 12:23:51;;;;;;;4.38;1.50;;;14.90;89.80;;;;;;4972107;28;20039;-49
2022/11/02 12:26:48;;;;;;;3.92;1.20;;;14.90;84.50;;;;;;4987539;28;20043;-51
2022/11/02 12:29:52;;;;;;;7.03;1.58;;;14.90;90.90;;;;;;4971087;28;20109;-52
2022/11/02 12:32:49;;;;;;;6.63;1.27;;;14.90;91.00;;;;;;5010911;28;20100;-49
2022/11/02 12:35:40;;;;;;;3.88;1.20;;;15.00;93.70;;;;;;4987518;28;20494;-50
2022/11/02 12:38:33;;;;;;;5.95;1.58;;;14.90;90.00;;;;;;4993041;28;20375;-52
2022/11/02 12:41:50;;;;;;;8.82;2.35;;;15.00;84.40;;;;;;5008944;28;20034;-49
2022/11/02 12:44:39;;;;;;;3.72;1.23;;;14.90;87.00;;;;;;4981638;28;20042;-50
2022/11/02 12:47:18;;;;;;;7.32;1.67;;;15.00;84.60;;;;;;5010465;28;20204;-54
2022/11/02 12:50:15;;;;;;;2.88;1.27;;;14.90;86.10;;;;;;4978897;28;20038;-49
2022/11/02 12:52:54;;;;;;;2.70;1.33;;;15.00;85.40;;;;;;5010601;28;20018;-50
2022/11/02 12:55:25;;;;;;;3.72;1.40;;;14.90;90.30;;;;;;4988262;28;20038;-53
2022/11/02 12:57:56;;;;;;;2.50;1.20;;;14.90;88.10;;;;;;4971326;28;20527;-48
2022/11/02 13:00:22;;;;;;;3.65;1.20;;;14.90;86.50;;;;;;4988831;28;20593;-52
2022/11/02 13:03:07;;;;;;;5.13;1.30;;;14.90;90.60;;;;;;4991374;28;20058;-49
2022/11/02 13:05:39;;;;;;;5.68;1.20;;;14.80;89.30;;;;;;4988526;28;20033;-53
2022/11/02 13:08:16;;;;;;;3.10;1.13;;;14.70;85.80;;;;;;4990449;28;20038;-53
2022/11/02 13:10:50;;;;;;;6.45;1.17;;;14.70;90.60;;;;;;4982105;28;20030;-52
2022/11/02 13:13:31;;;;;;;4.75;1.80;;;14.70;90.80;;;;;;4971317;28;20483;-50
2022/11/02 13:15:58;;;;;;;5.65;1.55;;;14.60;89.50;;;;;;4983413;28;20106;-49
2022/11/02 13:18:30;;;;;;;4.28;1.30;;;14.60;90.60;;;;;;5009739;28;20022;-51
2022/11/02 13:20:59;;;;;;;6.18;1.70;;;14.50;88.50;;;;;;4983513;28;20506;-47
2022/11/02 13:23:27;;;;;;;5.07;1.70;;;14.50;91.10;;;;;;5010109;28;20087;-48
2022/11/02 13:26:00;;;;;;;5.85;1.20;;;14.40;91.90;;;;;;4988801;28;20031;-47